Time;durP1;ratioP1;P1;durP2;ratioP2;P2;SDS_P1;SDS_P2;PMS_P1;PMS_P2;Temp;Humidity;BMP_temperature;BMP_pressure;BME280_temperature;BME280_humidity;BME280_pressure;Samples;Min_cycle;Max_cycle;Signal;HPM_P1;HPM_P2
2023/04/22 00:02:15;;;;;;;4.50;2.38;;;7.90;99.90;;;;;;5101234;28;20647;-47
2023/04/22 00:04:45;;;;;;;3.75;2.50;;;7.90;99.90;;;;;;5093211;28;20043;-49
2023/04/22 00:07:14;;;;;;;3.80;1.75;;;8.00;99.90;;;;;;5093419;28;20085;-48
2023/04/22 00:09:41;;;;;;;6.40;2.10;;;8.00;99.90;;;;;;5092633;28;20036;-48
2023/04/22 00:12:10;;;;;;;2.50;1.85;;;8.00;99.90;;;;;;5090564;28;20059;-49
2023/04/22 00:14:37;;;;;;;3.88;1.90;;;8.00;99.90;;;;;;5093090;28;20043;-48
2023/04/22 00:17:05;;;;;;;3.05;1.80;;;7.90;99.90;;;;;;5091267;28;20048;-48
2023/04/22 00:19:33;;;;;;;3.17;1.80;;;7.90;99.90;;;;;;5085983;28;20072;-47
2023/04/22 00:22:00;;;;;;;;;;;7.90;99.90;;;;;;5094782;28;20035;-51
2023/04/22 00:24:26;;;;;;;3.28;2.13;;;7.80;99.90;;;;;;5113373;28;19972;-48
2023/04/22 00:26:53;;;;;;;7.25;2.05;;;7.80;99.90;;;;;;5110185;28;20039;-48
2023/04/22 00:29:20;;;;;;;3.35;1.70;;;7.80;99.90;;;;;;5080468;28;20040;-50
2023/04/22 00:31:47;;;;;;;1.88;1.42;;;7.70;99.90;;;;;;5091445;28;20036;-48
2023/04/22 00:34:16;;;;;;;3.50;1.85;;;7.70;99.90;;;;;;5093110;28;20044;-48
2023/04/22 00:36:43;;;;;;;3.88;1.90;;;7.80;99.90;;;;;;5092652;28;20508;-49
2023/04/22 00:39:11;;;;;;;5.10;1.83;;;7.70;99.90;;;;;;5072971;28;20127;-48
2023/04/22 00:41:38;;;;;;;2.53;1.70;;;7.70;99.90;;;;;;5091446;28;20393;-48
2023/04/22 00:44:10;;;;;;;4.18;2.50;;;7.70;99.90;;;;;;5074602;28;20048;-48
2023/04/22 00:46:38;;;;;;;3.92;1.77;;;7.70;99.90;;;;;;5092272;28;20549;-48
2023/04/22 00:49:06;;;;;;;3.22;1.90;;;7.70;99.90;;;;;;5082164;28;20047;-48
2023/04/22 00:51:34;;;;;;;2.13;1.67;;;7.70;99.90;;;;;;5106347;28;20043;-49
2023/04/22 00:54:00;;;;;;;2.15;1.80;;;7.70;99.90;;;;;;5095494;28;20039;-48
2023/04/22 00:56:30;;;;;;;2.53;1.42;;;7.70;99.90;;;;;;5087933;28;20032;-50
2023/04/22 00:58:57;;;;;;;2.45;1.58;;;7.70;99.90;;;;;;5090570;28;20080;-48
2023/04/22 01:01:25;;;;;;;3.17;1.95;;;7.70;99.90;;;;;;5091423;28;20047;-49
2023/04/22 01:03:52;;;;;;;1.95;1.42;;;7.70;99.90;;;;;;5092381;28;20048;-48
2023/04/22 01:06:21;;;;;;;5.35;1.75;;;7.70;99.90;;;;;;5085290;28;20044;-48
2023/04/22 01:08:47;;;;;;;1.95;1.52;;;7.60;99.90;;;;;;5094836;28;20058;-49
2023/04/22 01:11:14;;;;;;;2.88;1.80;;;7.60;99.90;;;;;;5109491;28;20050;-48
2023/04/22 01:13:42;;;;;;;2.17;1.60;;;7.60;99.90;;;;;;5091676;28;20036;-48
2023/04/22 01:16:09;;;;;;;2.10;1.67;;;7.50;99.90;;;;;;5101198;28;20071;-49
2023/04/22 01:18:36;;;;;;;5.68;1.67;;;7.50;99.90;;;;;;5112604;28;20571;-48
2023/04/22 01:21:03;;;;;;;2.92;1.80;;;7.50;99.90;;;;;;5103394;28;20075;-49
2023/04/22 01:23:30;;;;;;;2.90;1.67;;;7.50;99.90;;;;;;5105210;28;20059;-51
2023/04/22 01:25:57;;;;;;;2.00;1.42;;;7.40;99.90;;;;;;5093827;28;20074;-49
2023/04/22 01:28:24;;;;;;;5.78;2.20;;;7.40;99.90;;;;;;5091502;28;20455;-48
2023/04/22 01:30:54;;;;;;;4.65;1.77;;;7.40;99.90;;;;;;5091134;28;20074;-49
2023/04/22 01:33:21;;;;;;;3.15;1.50;;;7.40;99.90;;;;;;5072753;28;20036;-48
2023/04/22 01:35:47;;;;;;;2.72;1.42;;;7.30;99.90;;;;;;5091181;28;20404;-48
2023/04/22 01:38:14;;;;;;;2.72;1.58;;;7.30;99.90;;;;;;5091933;28;20040;-48
2023/04/22 01:40:41;;;;;;;3.55;1.80;;;7.30;99.90;;;;;;5070368;28;20111;-48
2023/04/22 01:43:08;;;;;;;3.47;1.35;;;7.20;99.90;;;;;;5091611;28;20127;-48
2023/04/22 01:45:35;;;;;;;2.85;1.45;;;7.20;99.90;;;;;;5091036;28;20052;-47
2023/04/22 01:48:03;;;;;;;3.75;1.40;;;7.20;99.90;;;;;;5092508;28;20500;-48
2023/04/22 01:50:30;;;;;;;2.28;1.30;;;7.20;99.90;;;;;;5086725;28;20393;-48
2023/04/22 01:52:57;;;;;;;2.92;1.48;;;7.10;99.90;;;;;;5073256;28;20059;-48
2023/04/22 01:55:24;;;;;;;1.88;1.30;;;7.10;99.90;;;;;;5085396;28;20086;-48
2023/04/22 01:57:51;;;;;;;3.28;1.70;;;7.10;99.90;;;;;;5091258;28;20082;-47
2023/04/22 02:00:18;;;;;;;4.78;1.67;;;7.10;99.90;;;;;;5089811;28;20051;-50
2023/04/22 02:02:46;;;;;;;2.63;1.58;;;7.00;99.90;;;;;;5091790;28;20058;-47
2023/04/22 02:05:14;;;;;;;3.53;1.77;;;7.00;99.90;;;;;;5093172;28;20088;-48
2023/04/22 02:07:43;;;;;;;2.00;1.40;;;6.90;99.90;;;;;;5085342;28;20073;-51
2023/04/22 02:10:13;;;;;;;4.18;1.83;;;7.00;99.90;;;;;;5080109;28;20115;-48
2023/04/22 02:12:40;;;;;;;2.50;1.50;;;7.00;99.90;;;;;;5072795;28;20074;-47
2023/04/22 02:15:07;;;;;;;2.75;1.40;;;7.00;99.90;;;;;;5072677;28;20040;-47
2023/04/22 02:17:34;;;;;;;2.28;1.60;;;7.00;99.90;;;;;;5072412;28;20082;-49
2023/04/22 02:20:03;;;;;;;3.85;1.13;;;7.00;99.90;;;;;;5066874;28;20408;-48
2023/04/22 02:22:31;;;;;;;2.25;1.25;;;6.90;99.90;;;;;;5072103;28;20044;-47
2023/04/22 02:24:57;;;;;;;1.35;0.70;;;6.70;99.90;;;;;;5073211;28;20083;-48
2023/04/22 02:27:24;;;;;;;1.08;0.77;;;6.60;99.90;;;;;;5067567;28;20566;-48
2023/04/22 02:29:51;;;;;;;1.58;1.00;;;6.40;99.90;;;;;;5071447;28;20109;-47
2023/04/22 02:32:18;;;;;;;2.28;0.90;;;6.30;99.90;;;;;;5054619;28;20044;-49
2023/04/22 02:34:46;;;;;;;4.38;1.40;;;6.20;99.90;;;;;;5073436;28;20451;-48
2023/04/22 02:37:12;;;;;;;1.02;0.93;;;6.20;99.90;;;;;;5066541;28;20052;-48
2023/04/22 02:39:39;;;;;;;4.47;2.08;;;6.20;99.90;;;;;;5073084;28;20040;-47
2023/04/22 02:42:06;;;;;;;3.08;1.50;;;6.20;99.90;;;;;;5088403;28;20048;-49
2023/04/22 02:44:33;;;;;;;4.90;1.60;;;6.20;99.90;;;;;;5091808;28;20052;-48
2023/04/22 02:47:00;;;;;;;2.13;1.80;;;6.20;99.90;;;;;;5079798;28;20092;-48
2023/04/22 02:49:27;;;;;;;2.30;1.50;;;6.30;99.90;;;;;;5082286;28;20050;-49
2023/04/22 02:51:54;;;;;;;1.85;1.50;;;6.30;99.90;;;;;;5074846;28;20492;-48
2023/04/22 02:54:20;;;;;;;2.88;1.73;;;6.30;99.90;;;;;;5091428;28;20082;-48
2023/04/22 02:56:47;;;;;;;2.90;1.40;;;6.40;99.90;;;;;;5088477;28;20508;-48
2023/04/22 02:59:14;;;;;;;3.13;1.80;;;6.40;99.90;;;;;;5071749;28;20040;-48
2023/04/22 03:01:41;;;;;;;5.82;1.80;;;6.40;99.90;;;;;;5079228;28;20039;-48
2023/04/22 03:04:14;;;;;;;3.38;1.88;;;6.40;99.90;;;;;;5072344;28;20044;-48
2023/04/22 03:06:41;;;;;;;3.17;1.88;;;6.50;99.90;;;;;;5066532;28;20561;-48
2023/04/22 03:09:07;;;;;;;5.15;1.67;;;6.50;99.90;;;;;;5090625;28;20040;-48
2023/04/22 03:11:35;;;;;;;7.63;2.00;;;6.50;99.90;;;;;;5071633;28;20078;-48
2023/04/22 03:14:02;;;;;;;4.20;1.77;;;6.50;99.90;;;;;;5071686;28;20033;-48
2023/04/22 03:16:29;;;;;;;2.38;1.70;;;6.50;99.90;;;;;;5068638;28;20514;-49
2023/04/22 03:18:57;;;;;;;2.33;1.48;;;6.40;99.90;;;;;;5089031;28;20043;-47
2023/04/22 03:25:20;;;;;;;3.38;1.50;;;6.40;99.90;;;;;;5062494;28;20148;-49
2023/04/22 03:27:55;;;;;;;2.97;1.42;;;6.40;99.90;;;;;;5072612;28;20505;-49
2023/04/22 03:30:23;;;;;;;2.20;1.42;;;6.40;99.90;;;;;;5070964;28;20051;-48
2023/04/22 03:32:52;;;;;;;12.90;1.67;;;6.40;99.90;;;;;;5076921;28;20051;-47
2023/04/22 03:35:23;;;;;;;4.55;1.67;;;6.40;99.90;;;;;;5101598;28;20032;-49
2023/04/22 03:37:51;;;;;;;3.10;1.60;;;6.30;99.90;;;;;;5067507;28;20118;-48
2023/04/22 03:40:24;;;;;;;2.38;1.45;;;6.30;99.90;;;;;;5075459;28;20039;-53
2023/04/22 03:42:52;;;;;;;2.58;1.33;;;6.30;99.90;;;;;;5086027;28;20097;-51
2023/04/22 03:45:20;;;;;;;3.20;0.90;;;6.10;99.90;;;;;;5105765;28;20070;-50
2023/04/22 03:47:57;;;;;;;1.20;1.10;;;6.00;99.90;;;;;;5098562;28;20182;-52
2023/04/22 03:50:33;;;;;;;1.73;0.98;;;5.90;99.90;;;;;;5070317;28;20040;-49
2023/04/22 03:53:00;;;;;;;;;;;5.80;99.90;;;;;;5071954;28;20044;-47
2023/04/22 03:55:27;;;;;;;5.03;1.70;;;5.70;99.90;;;;;;5066272;28;19943;-49
2023/04/22 03:57:54;;;;;;;4.90;1.80;;;5.70;99.90;;;;;;5089221;28;20051;-48
2023/04/22 04:00:21;;;;;;;2.60;1.40;;;5.60;99.90;;;;;;5075819;28;20412;-50
2023/04/22 04:03:00;;;;;;;2.90;1.60;;;5.50;99.90;;;;;;5082303;28;20078;-51
2023/04/22 04:05:27;;;;;;;2.75;1.70;;;5.50;99.90;;;;;;5085015;28;20071;-48
2023/04/22 04:07:54;;;;;;;3.45;1.48;;;5.40;99.90;;;;;;5087641;28;20086;-51
2023/04/22 04:10:21;;;;;;;5.97;2.20;;;5.40;99.90;;;;;;5071859;28;20044;-47
2023/04/22 04:12:50;;;;;;;3.90;2.47;;;5.40;99.90;;;;;;5079734;28;20047;-47
2023/04/22 04:15:20;;;;;;;4.28;2.00;;;5.30;99.90;;;;;;5074472;28;20040;-48
2023/04/22 04:17:49;;;;;;;5.38;1.63;;;5.40;99.90;;;;;;5077575;28;20044;-48
2023/04/22 04:20:18;;;;;;;5.22;1.55;;;5.40;99.90;;;;;;5087472;28;20039;-48
2023/04/22 04:22:45;;;;;;;3.60;1.92;;;5.30;99.90;;;;;;5092479;28;20063;-47
2023/04/22 04:25:13;;;;;;;8.50;1.42;;;5.30;99.90;;;;;;5075783;28;20164;-47
2023/04/22 04:27:44;;;;;;;3.63;1.67;;;5.40;99.90;;;;;;5087403;28;20028;-47
2023/04/22 04:30:13;;;;;;;2.40;1.60;;;5.30;99.90;;;;;;5086852;28;20040;-47
2023/04/22 04:32:44;;;;;;;2.55;1.50;;;5.20;99.90;;;;;;5083974;28;20067;-47
2023/04/22 04:35:14;;;;;;;1.60;1.40;;;5.20;99.90;;;;;;5085876;28;20040;-48
2023/04/22 04:37:45;;;;;;;2.47;1.75;;;5.30;99.90;;;;;;5083116;28;20036;-49
2023/04/22 04:40:13;;;;;;;5.05;2.13;;;5.30;99.90;;;;;;5086532;28;20041;-48
2023/04/22 04:42:45;;;;;;;6.13;2.88;;;5.50;99.90;;;;;;5085364;28;20089;-49
2023/04/22 04:45:19;;;;;;;5.55;3.40;;;5.50;99.90;;;;;;5085515;28;20507;-47
2023/04/22 04:47:49;;;;;;;3.75;2.67;;;5.60;99.90;;;;;;5083395;27;20081;-52
2023/04/22 04:50:21;;;;;;;5.75;2.40;;;5.70;99.90;;;;;;5085209;28;20588;-49
2023/04/22 04:52:49;;;;;;;3.97;2.47;;;5.80;99.90;;;;;;5081991;28;20558;-48
2023/04/22 04:55:21;;;;;;;5.82;2.30;;;6.00;99.90;;;;;;5084754;28;20059;-50
2023/04/22 04:57:48;;;;;;;3.33;2.30;;;6.00;99.90;;;;;;5084255;28;20040;-47
2023/04/22 05:00:16;;;;;;;1.95;1.80;;;6.10;99.90;;;;;;5083406;28;20110;-49
2023/04/22 05:02:44;;;;;;;3.22;2.10;;;6.20;99.90;;;;;;5106756;28;20031;-49
2023/04/22 05:05:11;;;;;;;2.65;2.00;;;6.40;99.90;;;;;;5085547;28;20048;-50
2023/04/22 05:07:40;;;;;;;2.92;1.75;;;6.40;99.90;;;;;;5083324;28;20122;-48
2023/04/22 05:10:08;;;;;;;;;;;6.50;99.90;;;;;;5085472;28;20051;-51
2023/04/22 05:12:36;;;;;;;3.83;2.00;;;6.60;99.90;;;;;;5085474;28;19920;-48
2023/04/22 05:15:05;;;;;;;2.50;1.60;;;6.60;99.90;;;;;;5082327;28;20050;-47
2023/04/22 05:17:32;;;;;;;;;;;6.70;99.90;;;;;;5085740;28;20027;-47
2023/04/22 05:19:59;;;;;;;3.17;2.20;;;6.70;99.90;;;;;;5089120;28;19920;-47
2023/04/22 05:22:25;;;;;;;4.22;2.20;;;6.70;99.90;;;;;;5085114;28;20043;-50
2023/04/22 05:24:52;;;;;;;2.95;2.13;;;6.70;99.90;;;;;;5079401;28;20043;-48
2023/04/22 05:27:19;;;;;;;6.22;2.63;;;6.80;99.90;;;;;;5084295;28;20072;-51
2023/04/22 05:29:46;;;;;;;4.05;2.42;;;6.90;99.90;;;;;;5078509;28;20043;-48
2023/04/22 05:32:15;;;;;;;5.07;2.60;;;6.90;99.90;;;;;;5083026;28;20031;-49
2023/04/22 05:34:42;;;;;;;5.35;2.58;;;6.90;99.90;;;;;;5096474;28;20040;-52
2023/04/22 05:37:09;;;;;;;3.55;2.00;;;6.90;99.90;;;;;;5086644;28;20645;-48
2023/04/22 05:39:40;;;;;;;3.08;2.45;;;7.00;99.90;;;;;;5100865;28;20036;-48
2023/04/22 05:42:11;;;;;;;2.63;2.33;;;7.00;99.90;;;;;;5084139;28;20535;-48
2023/04/22 05:44:38;;;;;;;2.72;2.03;;;7.10;99.90;;;;;;5078299;28;20043;-51
2023/04/22 05:47:05;;;;;;;2.92;2.13;;;7.20;99.90;;;;;;5083747;28;20057;-50
2023/04/22 05:49:32;;;;;;;3.33;1.98;;;7.30;99.90;;;;;;5100331;28;20090;-48
2023/04/22 05:52:17;;;;;;;4.00;2.35;;;7.50;99.90;;;;;;5084929;28;20468;-48
2023/04/22 05:54:59;;;;;;;4.05;2.10;;;7.60;99.90;;;;;;5082165;28;20568;-50
2023/04/22 05:57:26;;;;;;;2.40;1.90;;;7.70;99.90;;;;;;5103825;28;20028;-48
2023/04/22 05:59:53;;;;;;;2.72;2.00;;;7.80;99.90;;;;;;5081787;28;20036;-47
2023/04/22 06:02:20;;;;;;;4.53;2.10;;;7.80;99.90;;;;;;5101543;28;20101;-48
2023/04/22 06:04:47;;;;;;;3.05;2.08;;;7.90;99.90;;;;;;5078591;28;20397;-51
2023/04/22 06:07:14;;;;;;;3.05;2.35;;;8.10;99.90;;;;;;5083131;28;20049;-47
2023/04/22 06:09:41;;;;;;;2.92;2.20;;;8.20;99.90;;;;;;5083141;28;20036;-47
2023/04/22 06:12:08;;;;;;;4.68;1.70;;;8.30;99.90;;;;;;5101656;28;20044;-51
2023/04/22 06:14:35;;;;;;;2.50;2.00;;;8.40;99.90;;;;;;5080832;28;20044;-49
2023/04/22 06:17:02;;;;;;;4.70;2.40;;;8.50;99.90;;;;;;5089451;28;20039;-47
2023/04/22 06:19:29;;;;;;;3.45;1.98;;;8.60;99.90;;;;;;5082218;28;20036;-50
2023/04/22 06:21:56;;;;;;;5.07;2.15;;;8.70;99.90;;;;;;5081790;28;20048;-49
2023/04/22 06:24:23;;;;;;;3.75;2.22;;;8.70;99.90;;;;;;5084455;28;20047;-47
2023/04/22 06:26:49;;;;;;;3.40;2.03;;;8.90;99.90;;;;;;5084112;28;20035;-48
2023/04/22 06:29:16;;;;;;;3.92;2.38;;;9.00;99.90;;;;;;5082988;28;20407;-47
2023/04/22 06:31:43;;;;;;;2.75;1.48;;;9.20;99.90;;;;;;5100215;28;20048;-48
2023/04/22 06:34:10;;;;;;;3.63;2.03;;;9.30;99.90;;;;;;5073866;28;20534;-47
2023/04/22 06:36:37;;;;;;;2.85;2.08;;;9.50;99.90;;;;;;5081916;28;20040;-50
2023/04/22 06:39:05;;;;;;;4.57;2.25;;;9.60;99.90;;;;;;5080765;28;20131;-51
2023/04/22 06:41:50;;;;;;;3.70;2.20;;;9.70;99.90;;;;;;5077550;28;20054;-48
2023/04/22 06:44:36;;;;;;;3.55;2.15;;;9.80;99.90;;;;;;5083432;28;20073;-48
2023/04/22 06:47:14;;;;;;;4.10;1.95;;;9.90;99.90;;;;;;5081873;28;20056;-47
2023/04/22 06:49:46;;;;;;;3.92;1.35;;;10.10;99.90;;;;;;5094037;28;20079;-47
2023/04/22 06:52:23;;;;;;;2.50;1.73;;;10.30;99.90;;;;;;5078206;28;20205;-47
2023/04/22 06:54:52;;;;;;;2.70;1.88;;;10.40;99.90;;;;;;5092819;28;20122;-50
2023/04/22 06:57:19;;;;;;;2.95;1.70;;;10.40;99.90;;;;;;5081516;28;20176;-47
2023/04/22 06:59:46;;;;;;;4.25;1.95;;;10.60;99.90;;;;;;5088643;28;20067;-50
2023/04/22 07:02:13;;;;;;;3.65;1.70;;;10.80;99.90;;;;;;5070333;28;20048;-48
2023/04/22 07:04:42;;;;;;;5.40;2.00;;;10.90;99.90;;;;;;5089775;28;20036;-50
2023/04/22 07:07:10;;;;;;;2.45;1.63;;;11.10;99.90;;;;;;5071346;28;20419;-49
2023/04/22 07:09:36;;;;;;;3.65;2.10;;;11.30;99.90;;;;;;5103221;28;20040;-47
2023/04/22 07:12:04;;;;;;;1.83;1.20;;;11.50;99.90;;;;;;5088401;28;20052;-49
2023/04/22 07:14:31;;;;;;;1.95;1.15;;;11.70;99.90;;;;;;5104939;28;20071;-49
2023/04/22 07:16:58;;;;;;;3.35;1.27;;;12.00;99.90;;;;;;5110418;28;20066;-48
2023/04/22 07:19:25;;;;;;;2.53;1.35;;;12.20;99.90;;;;;;5086112;28;20040;-51
2023/04/22 07:21:52;;;;;;;3.50;1.50;;;12.40;99.90;;;;;;5089415;28;20504;-48
2023/04/22 07:24:19;;;;;;;2.58;1.27;;;12.60;99.90;;;;;;5090541;28;20117;-51
2023/04/22 07:26:46;;;;;;;3.03;1.80;;;12.70;99.90;;;;;;5098143;28;20054;-49
2023/04/22 07:29:13;;;;;;;2.20;1.48;;;12.70;99.90;;;;;;5102189;28;20043;-48
2023/04/22 07:31:39;;;;;;;3.08;1.50;;;12.70;99.90;;;;;;5092092;28;20056;-48
2023/04/22 07:34:06;;;;;;;2.00;1.40;;;12.90;99.90;;;;;;5093230;28;20040;-50
2023/04/22 07:36:33;;;;;;;2.75;1.55;;;12.80;99.90;;;;;;5089690;28;20102;-51
2023/04/22 07:39:00;;;;;;;2.05;1.25;;;12.90;99.90;;;;;;5094366;28;20852;-49
2023/04/22 07:41:27;;;;;;;1.65;1.13;;;13.00;99.90;;;;;;5096913;28;20565;-49
2023/04/22 07:43:54;;;;;;;3.72;1.27;;;13.20;99.90;;;;;;5089031;28;20070;-50
2023/04/22 07:46:21;;;;;;;2.47;1.30;;;13.50;99.90;;;;;;5094088;28;20104;-50
2023/04/22 07:48:48;;;;;;;2.17;1.20;;;13.80;99.90;;;;;;5098429;28;20040;-54
2023/04/22 07:51:14;;;;;;;2.45;1.20;;;14.00;99.90;;;;;;5092826;28;20047;-48
2023/04/22 07:53:41;;;;;;;1.98;1.02;;;14.20;99.90;;;;;;5093486;28;20691;-49
2023/04/22 07:56:08;;;;;;;4.03;0.90;;;14.40;99.90;;;;;;5075523;28;20570;-50
2023/04/22 07:58:35;;;;;;;1.13;0.88;;;14.40;99.90;;;;;;5107359;28;20032;-48
2023/04/22 08:01:01;;;;;;;1.70;1.05;;;14.50;99.90;;;;;;5095083;28;20113;-50
2023/04/22 08:03:28;;;;;;;2.33;1.10;;;14.50;99.90;;;;;;5093520;28;20558;-48
2023/04/22 08:05:57;;;;;;;6.68;1.20;;;14.60;99.90;;;;;;5092899;28;20059;-49
2023/04/22 08:08:25;;;;;;;1.08;0.98;;;14.80;99.90;;;;;;5096069;28;20040;-48
2023/04/22 08:10:52;;;;;;;1.02;0.80;;;14.90;99.90;;;;;;5075857;28;20111;-49
2023/04/22 08:13:19;;;;;;;1.30;0.93;;;15.00;99.90;;;;;;5091714;28;20496;-49
2023/04/22 08:15:45;;;;;;;4.70;1.10;;;15.10;99.90;;;;;;5093278;28;20105;-48
2023/04/22 08:18:12;;;;;;;0.90;0.77;;;15.40;99.90;;;;;;5094145;28;20509;-49
2023/04/22 08:20:39;;;;;;;1.38;0.90;;;15.70;99.90;;;;;;5093562;28;20064;-51
2023/04/22 08:23:06;;;;;;;1.27;0.90;;;15.90;99.10;;;;;;5091353;28;20097;-48
2023/04/22 08:25:34;;;;;;;1.30;0.70;;;16.00;99.60;;;;;;5093734;27;20032;-48
2023/04/22 08:28:00;;;;;;;2.70;1.00;;;16.20;97.70;;;;;;5091931;28;20453;-49
2023/04/22 08:30:27;;;;;;;1.23;1.10;;;16.20;97.90;;;;;;5112705;28;20040;-48
2023/04/22 08:32:54;;;;;;;0.90;0.80;;;16.40;98.00;;;;;;5108004;28;20485;-50
2023/04/22 08:35:21;;;;;;;2.95;1.77;;;16.40;97.50;;;;;;5096897;28;20047;-48
2023/04/22 08:37:47;;;;;;;2.08;1.20;;;16.50;97.40;;;;;;5092308;28;20391;-49
2023/04/22 08:40:14;;;;;;;1.65;1.00;;;16.60;97.70;;;;;;5087976;28;20104;-52
2023/04/22 08:42:43;;;;;;;0.80;0.80;;;16.70;96.80;;;;;;5092186;28;20036;-48
2023/04/22 08:45:12;;;;;;;1.58;1.25;;;16.60;95.90;;;;;;5092512;28;20097;-48
2023/04/22 08:47:39;;;;;;;5.30;1.52;;;16.50;96.00;;;;;;5092366;28;20048;-48
2023/04/22 08:50:08;;;;;;;3.20;0.90;;;16.50;96.80;;;;;;5102028;28;20051;-52
2023/04/22 08:52:35;;;;;;;2.42;0.90;;;16.70;95.80;;;;;;5107082;28;20040;-49
2023/04/22 08:55:02;;;;;;;1.40;0.98;;;16.60;95.90;;;;;;5104424;28;20094;-49
2023/04/22 08:57:30;;;;;;;1.25;0.95;;;16.60;95.30;;;;;;5108705;28;20035;-49
2023/04/22 08:59:57;;;;;;;2.53;1.38;;;16.80;94.70;;;;;;5112798;28;20073;-48
2023/04/22 09:02:25;;;;;;;;;;;17.00;94.80;;;;;;5102354;28;20514;-51
2023/04/22 09:04:55;;;;;;;3.87;1.00;;;17.20;95.00;;;;;;5092270;28;19920;-50
2023/04/22 09:07:24;;;;;;;1.15;0.80;;;17.30;93.70;;;;;;5092236;28;20320;-48
2023/04/22 09:09:52;;;;;;;1.00;0.90;;;17.50;93.50;;;;;;5092188;28;20039;-48
2023/04/22 09:12:18;;;;;;;2.50;0.73;;;17.60;92.70;;;;;;5091199;28;20036;-50
2023/04/22 09:14:45;;;;;;;1.50;0.98;;;17.70;92.70;;;;;;5092794;28;20493;-50
2023/04/22 09:17:18;;;;;;;1.15;0.80;;;17.90;93.70;;;;;;5091688;28;20037;-52
2023/04/22 09:19:45;;;;;;;3.63;0.90;;;18.00;92.40;;;;;;5090983;28;20377;-50
2023/04/22 09:22:14;;;;;;;2.33;1.75;;;18.10;91.80;;;;;;5096387;28;20200;-50
2023/04/22 09:24:50;;;;;;;1.50;0.90;;;18.30;91.70;;;;;;5092182;28;20067;-50
2023/04/22 09:27:18;;;;;;;0.75;0.75;;;18.40;91.80;;;;;;5086110;28;20072;-50
2023/04/22 09:29:49;;;;;;;1.50;0.98;;;18.40;91.00;;;;;;5091887;28;20048;-49
2023/04/22 09:32:16;;;;;;;3.78;1.25;;;18.40;91.00;;;;;;5110993;28;20059;-48
2023/04/22 09:34:53;;;;;;;1.98;0.80;;;18.50;91.10;;;;;;5112806;28;20492;-48
2023/04/22 09:37:24;;;;;;;2.05;0.90;;;18.40;90.30;;;;;;5087406;28;20059;-49
2023/04/22 09:39:58;;;;;;;1.00;0.90;;;18.50;90.30;;;;;;5090883;28;20052;-51
2023/04/22 09:42:25;;;;;;;2.00;1.27;;;18.60;87.70;;;;;;5086467;28;20055;-48
2023/04/22 09:44:52;;;;;;;1.23;0.85;;;18.60;88.30;;;;;;5090693;28;20052;-48
2023/04/22 09:47:20;;;;;;;0.90;0.80;;;18.60;90.10;;;;;;5092437;28;20076;-51
2023/04/22 09:49:48;;;;;;;1.48;1.30;;;18.80;89.60;;;;;;5090610;28;20055;-47
2023/04/22 09:52:25;;;;;;;2.08;0.88;;;19.00;88.60;;;;;;5092141;28;20048;-48
2023/04/22 09:54:53;;;;;;;3.15;1.63;;;19.10;88.10;;;;;;5086522;28;20044;-50
2023/04/22 09:57:20;;;;;;;3.75;1.58;;;19.10;87.70;;;;;;5092401;28;20172;-47
2023/04/22 09:59:50;;;;;;;1.58;0.90;;;19.30;86.50;;;;;;5086142;28;20093;-47
2023/04/22 10:02:17;;;;;;;2.78;1.70;;;19.40;85.80;;;;;;5095175;28;20103;-48
2023/04/22 10:04:46;;;;;;;1.23;0.90;;;19.40;85.40;;;;;;5105545;28;20028;-50
2023/04/22 10:07:14;;;;;;;3.35;1.95;;;19.60;84.80;;;;;;5102999;28;20040;-48
2023/04/22 10:09:41;;;;;;;2.47;0.85;;;19.70;85.30;;;;;;5097556;28;20036;-52
2023/04/22 10:12:07;;;;;;;0.77;0.60;;;19.80;83.10;;;;;;5103453;28;20047;-47
2023/04/22 10:14:34;;;;;;;5.15;0.80;;;19.90;79.70;;;;;;5100635;28;20557;-47
2023/04/22 10:17:03;;;;;;;0.50;0.50;;;20.00;77.20;;;;;;5102587;28;20068;-50
2023/04/22 10:19:32;;;;;;;1.85;1.08;;;20.00;79.10;;;;;;5102550;28;20035;-48
2023/04/22 10:22:02;;;;;;;0.98;0.70;;;20.10;77.40;;;;;;5108596;28;20055;-51
2023/04/22 10:24:34;;;;;;;0.80;0.80;;;20.20;78.20;;;;;;5111391;28;20051;-48
2023/04/22 10:27:07;;;;;;;1.42;1.00;;;20.10;76.40;;;;;;5097968;28;20097;-48
2023/04/22 10:29:37;;;;;;;0.60;0.50;;;19.80;76.90;;;;;;5090321;28;20059;-47
2023/04/22 10:32:16;;;;;;;1.55;0.68;;;19.80;76.00;;;;;;5090881;28;20093;-48
2023/04/22 10:34:47;;;;;;;0.60;0.60;;;19.80;75.10;;;;;;5088540;28;20059;-48
2023/04/22 10:37:18;;;;;;;3.13;0.70;;;19.90;74.80;;;;;;5110776;28;20436;-49
2023/04/22 10:40:15;;;;;;;1.17;0.60;;;20.00;75.60;;;;;;5092704;28;20040;-47
2023/04/22 10:42:51;;;;;;;0.57;0.50;;;20.10;77.60;;;;;;5099787;28;20036;-48
2023/04/22 10:45:17;;;;;;;0.95;0.68;;;20.20;77.70;;;;;;5100872;28;20071;-48
2023/04/22 10:47:45;;;;;;;1.38;0.90;;;20.30;76.30;;;;;;5097359;28;20089;-51
2023/04/22 10:50:25;;;;;;;0.88;0.75;;;20.30;76.20;;;;;;5101793;28;20122;-49
2023/04/22 10:52:58;;;;;;;0.90;0.60;;;20.50;81.40;;;;;;5092613;28;20044;-50
2023/04/22 10:55:45;;;;;;;1.40;0.90;;;20.50;76.10;;;;;;5102394;28;20040;-48
2023/04/22 10:58:20;;;;;;;0.80;0.70;;;20.50;77.40;;;;;;5100449;28;20044;-49
2023/04/22 11:00:51;;;;;;;0.73;0.60;;;20.40;74.30;;;;;;5100952;28;20500;-51
2023/04/22 11:03:26;;;;;;;0.68;0.68;;;20.60;75.60;;;;;;5097790;28;20040;-50
2023/04/22 11:06:17;;;;;;;2.10;0.80;;;20.80;74.80;;;;;;5100841;28;20043;-49
2023/04/22 11:08:48;;;;;;;1.08;0.70;;;20.90;74.10;;;;;;5100457;28;20140;-49
2023/04/22 11:11:18;;;;;;;0.77;0.70;;;20.90;75.80;;;;;;5099701;28;20073;-54
2023/04/22 11:13:49;;;;;;;1.02;0.60;;;20.90;71.80;;;;;;5101719;28;20036;-49
2023/04/22 11:16:19;;;;;;;1.42;0.90;;;21.00;70.10;;;;;;5100102;28;20027;-49
2023/04/22 11:18:48;;;;;;;0.90;0.82;;;21.30;72.10;;;;;;5101571;28;20040;-51
2023/04/22 11:21:15;;;;;;;0.70;0.70;;;21.40;71.20;;;;;;5109179;22;20082;-54
2023/04/22 11:23:48;;;;;;;;;;;21.50;71.30;;;;;;5061252;28;20052;-51
2023/04/22 11:26:15;;;;;;;0.70;0.63;;;21.50;69.00;;;;;;5092888;28;19920;-52
2023/04/22 11:28:45;;;;;;;0.63;0.63;;;21.40;69.40;;;;;;5094134;28;20036;-50
2023/04/22 11:31:13;;;;;;;0.73;0.73;;;21.40;69.10;;;;;;5085549;28;20118;-50
2023/04/22 11:33:40;;;;;;;0.68;0.60;;;21.50;71.80;;;;;;5094750;28;20067;-50
2023/04/22 11:36:10;;;;;;;3.63;1.30;;;21.60;73.50;;;;;;5080048;28;20048;-52
2023/04/22 11:38:37;;;;;;;0.82;0.68;;;21.60;70.80;;;;;;5074466;28;20138;-50
2023/04/22 11:41:04;;;;;;;0.80;0.75;;;21.70;68.60;;;;;;5075268;28;20336;-50
2023/04/22 11:43:31;;;;;;;2.00;1.08;;;21.70;67.30;;;;;;5080050;28;20286;-50
2023/04/22 11:45:58;;;;;;;0.85;0.80;;;21.70;68.40;;;;;;5091906;28;20036;-49
2023/04/22 11:48:25;;;;;;;0.77;0.70;;;21.80;69.70;;;;;;5093921;28;20252;-49
2023/04/22 11:51:08;;;;;;;1.17;0.80;;;21.90;66.40;;;;;;5089546;28;20109;-50
2023/04/22 11:53:35;;;;;;;3.33;1.35;;;22.00;67.60;;;;;;5079049;28;20040;-51
2023/04/22 11:56:02;;;;;;;0.82;0.80;;;22.10;68.40;;;;;;5087961;28;20048;-52
2023/04/22 11:58:30;;;;;;;;;;;22.30;69.50;;;;;;5088583;28;20032;-50
2023/04/22 12:00:58;;;;;;;0.77;0.70;;;22.40;64.10;;;;;;5085027;28;20444;-49
2023/04/22 12:03:27;;;;;;;3.92;0.70;;;22.30;62.80;;;;;;5093253;28;20048;-48
2023/04/22 12:05:57;;;;;;;1.40;0.80;;;22.40;59.20;;;;;;5076273;28;20051;-49
2023/04/22 12:08:30;;;;;;;0.55;0.55;;;22.30;56.10;;;;;;5077603;28;20072;-49
2023/04/22 12:11:00;;;;;;;1.88;0.77;;;22.40;56.50;;;;;;5075614;28;20064;-50
2023/04/22 12:13:30;;;;;;;1.23;0.63;;;22.60;61.90;;;;;;5073251;28;20040;-50
2023/04/22 12:16:03;;;;;;;1.35;0.85;;;22.80;58.70;;;;;;5055567;28;20510;-50
2023/04/22 12:18:31;;;;;;;1.23;0.73;;;22.80;61.50;;;;;;5084082;28;20051;-49
2023/04/22 12:21:12;;;;;;;1.25;0.60;;;22.70;59.10;;;;;;5074680;28;20036;-48
2023/04/22 12:23:59;;;;;;;1.00;0.80;;;22.70;61.50;;;;;;5072268;28;20048;-48
2023/04/22 12:26:27;;;;;;;1.25;0.90;;;22.90;59.40;;;;;;5089114;28;20048;-48
2023/04/22 12:28:55;;;;;;;0.65;0.60;;;23.00;62.40;;;;;;5085026;28;20048;-48
2023/04/22 12:31:23;;;;;;;2.28;0.90;;;23.00;55.50;;;;;;5084746;28;20078;-52
2023/04/22 12:33:49;;;;;;;4.43;0.80;;;23.10;54.30;;;;;;5089231;28;20043;-48
2023/04/22 12:36:19;;;;;;;0.63;0.63;;;23.10;53.90;;;;;;5088926;28;20036;-48
2023/04/22 12:38:46;;;;;;;1.30;0.77;;;23.10;53.60;;;;;;5073548;28;20489;-49
2023/04/22 12:41:14;;;;;;;;;;;23.00;53.90;;;;;;5073552;28;20102;-48
2023/04/22 12:43:41;;;;;;;3.67;0.90;;;22.90;52.50;;;;;;5083675;28;19920;-47
2023/04/22 12:46:08;;;;;;;2.45;0.90;;;23.10;55.00;;;;;;5082767;28;20078;-48
2023/04/22 12:48:38;;;;;;;1.75;0.95;;;23.30;54.80;;;;;;5076019;28;20045;-49
2023/04/22 12:51:05;;;;;;;1.15;0.88;;;23.40;55.70;;;;;;5072824;28;20166;-48
2023/04/22 12:53:33;;;;;;;1.20;0.80;;;23.40;55.90;;;;;;5072390;28;20071;-48
2023/04/22 12:56:00;;;;;;;0.70;0.70;;;23.50;54.70;;;;;;5072728;28;20048;-48
2023/04/22 12:58:27;;;;;;;1.08;0.90;;;23.50;54.30;;;;;;5072209;28;20119;-49
2023/04/22 13:00:53;;;;;;;1.40;0.93;;;23.50;53.60;;;;;;5078998;28;20036;-49
2023/04/22 13:03:20;;;;;;;0.70;0.70;;;23.60;54.40;;;;;;5072104;28;20056;-48
2023/04/22 13:05:47;;;;;;;2.42;1.00;;;23.40;54.40;;;;;;5072460;28;20044;-49
2023/04/22 13:08:14;;;;;;;4.75;0.93;;;23.50;53.30;;;;;;5074953;28;20797;-48